Flight Track Log - Related Links

Times and Time Zones

All times are in EDT time to prevent confusion due to time zone crossing. See the ASQ5963 flight status page for this flight to view local times or setup timezone preferences in your user account.

Time Position Orientation Groundspeed Altitude Reporting Facility
EDT Latitude Longitude Course Direction KTS MPH feet Rate Location/Type
Mon 08:15:01 AM 40.6333 -74.1833 226° Southwest 198 228 1,500  Level New York TRACON
Mon 08:16:02 AM 40.5833 -74.2333 217° Southwest 257 296 3,100 2,083 Climbing New York TRACON
Mon 08:17:02 AM 40.5167 -74.2667 201° Southwest 259 298 5,700 1,381 Climbing New York TRACON
Mon 08:18:08 AM 40.4333 -74.2167 155° Southeast 288 331 6,000 167 Climbing New York TRACON
Mon 08:18:50 AM 40.3725 -74.1900 162° South 291 335 6,000  Level New York Center
Mon 08:19:50 AM 40.3147 -74.1681 164° South 279 321 6,000  Level New York Center
Mon 08:20:00 AM 40.2509 -74.6269 226° Southwest  Level Estimated
Mon 08:20:50 AM 40.2436 -74.1808 188° South 275 316 6,000  Level New York Center
Mon 08:21:50 AM 40.1958 -74.1050 130° Southeast 249 287 7,600 1,785 Climbing New York Center
Mon 08:22:51 AM 40.1250 -74.1044 180° South 224 258 9,600 1,900 Climbing New York Center
Mon 08:23:50 AM 40.0731 -74.1697 224° Southwest 209 241 11,400 1,311 Climbing New York Center
Mon 08:24:50 AM 40.0144 -74.2428 224° Southwest 254 292 12,200 1,200 Climbing New York Center
Mon 08:25:50 AM 39.9808 -74.3278 243° Southwest 295 339 13,800 1,400 Climbing New York Center
Mon 08:26:50 AM 39.9261 -74.4117 230° Southwest 309 356 15,000 1,228 Climbing New York Center
Mon 08:27:57 AM 39.8439 -74.5025 220° Southwest 317 365 16,400 1,313 Climbing Washington Center
Mon 08:28:58 AM 39.7758 -74.5792 221° Southwest 324 373 17,800 1,884 Climbing Washington Center
Mon 08:29:58 AM 39.7139 -74.6475 220° Southwest 324 373 20,200 2,033 Climbing Washington Center
Mon 08:30:59 AM 39.6542 -74.7156 221° Southwest 303 349 21,900 885 Climbing Washington Center
Mon 08:32:00 AM 39.5900 -74.7892 221° Southwest 303 349 22,000 50 Climbing Washington Center
Mon 08:32:58 AM 39.5300 -74.8569 221° Southwest 310 357 22,000  Level Washington Center
Mon 08:33:58 AM 39.4678 -74.9275 221° Southwest 310 357 22,000  Level Washington Center
Mon 08:34:59 AM 39.4058 -74.9953 220° Southwest 305 351 22,000  Level Washington Center
Mon 08:36:00 AM 39.3372 -75.0711 221° Southwest 310 357 22,000  Level Washington Center
Mon 08:36:58 AM 39.2750 -75.1464 223° Southwest 310 357 22,000  Level Washington Center
Mon 08:37:59 AM 39.2150 -75.2247 225° Southwest 310 357 22,000  Level Washington Center
Mon 08:39:00 AM 39.1547 -75.3025 225° Southwest 310 357 22,000  Level Washington Center
Mon 08:40:00 AM 39.0944 -75.3803 225° Southwest 310 357 22,000  Level Washington Center
Mon 08:40:58 AM 39.0342 -75.4581 225° Southwest 310 357 22,000  Level Washington Center
Mon 08:41:59 AM 38.9736 -75.5356 225° Southwest 305 351 22,000  Level Washington Center
Mon 08:43:00 AM 38.9050 -75.6208 224° Southwest 319 367 22,000  Level Washington Center
Mon 08:43:59 AM 38.8611 -75.7356 244° Southwest 343 395 22,000  Level Washington Center
Mon 08:45:00 AM 38.8214 -75.8556 247° West 363 418 22,000  Level Washington Center
Mon 08:45:58 AM 38.7628 -75.9644 235° Southwest 368 423 22,000  Level Washington Center
Mon 08:46:58 AM 38.6728 -76.0436 214° Southwest 373 429 22,000  Level Washington Center
Mon 08:47:58 AM 38.5764 -76.1281 214° Southwest 385 443 22,000  Level Washington Center
Mon 08:49:00 AM 38.4989 -76.2072 219° Southwest 396 456 22,000  Level Washington Center
Mon 08:49:57 AM 38.4153 -76.2833 216° Southwest 390 449 22,000  Level Washington Center
Mon 08:50:58 AM 38.3292 -76.3619 216° Southwest 390 449 22,000  Level Washington Center
Mon 08:51:59 AM 38.2494 -76.4564 223° Southwest 385 443 22,000  Level Washington Center
Mon 08:53:00 AM 38.1778 -76.5506 226° Southwest 372 428 22,000  Level Washington Center
Mon 08:53:58 AM 38.1081 -76.6500 228° Southwest 372 428 22,000  Level Washington Center
Mon 08:54:59 AM 38.0406 -76.7467 228° Southwest 372 428 22,000  Level Washington Center
Mon 08:56:00 AM 37.9686 -76.8403 226° Southwest 372 428 22,000  Level Washington Center
Mon 08:56:58 AM 37.8658 -76.8886 200° South 377 434 22,000  Level Washington Center
Mon 08:58:00 AM 37.7633 -76.9342 199° South 377 434 22,000  Level Washington Center
Mon 08:58:58 AM 37.6606 -76.9769 198° South 391 450 22,000  Level Washington Center
Mon 09:00:00 AM 37.5558 -77.0194 198° South 391 450 22,000  Level Washington Center
Mon 09:00:58 AM 37.4467 -77.0647 198° South 408 470 22,000  Level Washington Center
Mon 09:01:58 AM 37.3503 -77.1097 200° South 408 470 22,000  Level Washington Center
Mon 09:02:59 AM 37.2514 -77.1706 206° Southwest 408 470 22,000  Level Washington Center
Mon 09:03:59 AM 37.1544 -77.2361 208° Southwest 403 464 22,000  Level Washington Center
Mon 09:05:00 AM 37.0575 -77.3097 211° Southwest 403 464 22,000  Level Washington Center
Mon 09:05:58 AM 36.9606 -77.3803 210° Southwest 409 471 22,000  Level Washington Center
Mon 09:06:59 AM 36.8656 -77.4506 211° Southwest 409 471 22,000  Level Washington Center
Mon 09:07:59 AM 36.7581 -77.5311 211° Southwest 409 471 22,000  Level Washington Center
Mon 09:09:00 AM 36.6631 -77.5986 210° Southwest 409 471 22,000 -202 Level Washington Center
Mon 09:09:58 AM 36.5700 -77.6711 212° Southwest 409 471 21,600 -1,525 Descending Washington Center
Mon 09:10:58 AM 36.4850 -77.7569 219° Southwest 409 471 19,000 -1,884 Descending Washington Center
Mon 09:11:59 AM 36.4186 -77.8453 227° Southwest 397 457 17,800 -1,587 Descending Washington Center
Mon 09:12:59 AM 36.3503 -77.9336 226° Southwest 375 432 15,800 -2,208 Descending Washington Center
Mon 09:13:45 AM 36.2944 -78.0042 226° Southwest 332 382 13,900 -2,066 Descending Washington Center
Mon 09:14:00 AM 36.2881 -78.0169 238° Southwest 354 407 13,700 -1,500 Descending Washington Center
Mon 09:14:33 AM 36.2408 -78.0747 225° Southwest 339 390 12,700 -1,474 Descending Washington Center
Mon 09:14:57 AM 36.2217 -78.1022 229° Southwest 349 402 12,300 -1,906 Descending Washington Center
Mon 09:15:58 AM 36.1569 -78.1953 229° Southwest 336 387 10,000 -1,500 Descending Washington Center
Mon 09:16:41 AM 36.1453 -78.2517 256° West 258 297 9,700 -290 Descending Washington Center
Mon 09:17:00 AM 36.1428 -78.2722 261° West 277 319 9,700 -590 Level Washington Center
Mon 09:17:42 AM 36.1333 -78.3233 257° West 169 194 9,100 -900 Descending Washington Center
Mon 09:18:00 AM 36.1289 -78.3386 250° West 231 266 8,800 -1,000 Descending Washington Center
Mon 09:18:42 AM 36.1133 -78.3792 245° Southwest 167 192 8,100 -1,053 Descending Washington Center
Mon 09:18:57 AM 36.1108 -78.3919 256° West 188 216 7,800 -1,082 Descending Washington Center
Mon 09:19:43 AM 36.0953 -78.4300 243° Southwest 166 191 7,000 -1,082 Descending Washington Center
Mon 09:19:58 AM 36.0908 -78.4425 246° West 171 197 6,700 -1,065 Descending Washington Center
Mon 09:20:45 AM 36.0753 -78.4806 243° Southwest 165 190 5,900 -968 Descending Washington Center
Mon 09:21:00 AM 36.0708 -78.4906 241° Southwest 171 197 5,700 -1,527 Descending Washington Center
Mon 09:21:40 AM 36.0511 -78.5361 242° Southwest 194 223 4,500 -1,448 Descending Washington Center
Mon 09:21:58 AM 36.0467 -78.5489 247° West 176 203 4,300 -1,400 Descending Washington Center
Mon 09:22:40 AM 36.0267 -78.5892 238° Southwest 188 216 3,100 -1,279 Descending Washington Center
Mon 09:22:59 AM 36.0222 -78.6019 247° West 181 208 3,000 -197 Descending Washington Center
Mon 09:23:41 AM 35.9986 -78.6344 228° Southwest 171 197 2,900 -117 Descending Washington Center
Mon 09:24:42 AM 35.9642 -78.6742 223° Southwest 165 190 2,800 -534 Descending Washington Center
Mon 09:26:07 AM 35.9167 -78.7339 226° Southwest 164 189 1,600 -820 Descending Washington Center
Mon 09:27:01 AM 35.8931 -78.7611 223° Southwest 129 148 900 -778 Descending Washington Center

Login

Don't have an account? Register now (free) for customized features, flight alerts, and more!